Time;durP1;ratioP1;P1;durP2;ratioP2;P2;SDS_P1;SDS_P2;PMS_P1;PMS_P2;Temp;Humidity;BMP_temperature;BMP_pressure;BME280_temperature;BME280_humidity;BME280_pressure;Samples;Min_cycle;Max_cycle;Signal;HPM_P1;HPM_P2
2021/01/01 00:01:42;;;;;;;102.43;45.78;;;;;;;3.01;73.28;99947.56;4404265;32;20182;-78
2021/01/01 00:04:09;;;;;;;93.55;43.55;;;;;;;3.12;72.60;99953.06;4407184;32;20101;-74
2021/01/01 00:06:37;;;;;;;118.72;51.37;;;;;;;3.21;72.42;99962.53;4415266;32;20434;-78
2021/01/01 00:09:06;;;;;;;117.40;52.90;;;;;;;3.25;71.98;99948.63;4403208;32;20465;-77
2021/01/01 00:11:33;;;;;;;201.23;93.30;;;;;;;3.37;72.09;99953.66;4406871;32;20080;-78
2021/01/01 00:13:59;;;;;;;173.20;79.20;;;;;;;3.34;71.75;99944.16;4402384;32;20099;-74
2021/01/01 00:16:24;;;;;;;126.22;57.28;;;;;;;3.30;71.02;99943.41;4410112;32;20065;-74
2021/01/01 00:18:50;;;;;;;129.12;53.42;;;;;;;3.29;71.77;99955.75;4409446;32;20080;-75
2021/01/01 00:21:16;;;;;;;122.00;55.33;;;;;;;3.23;72.40;99960.16;4402574;32;20042;-77
2021/01/01 00:23:41;;;;;;;127.32;59.47;;;;;;;3.36;72.81;99957.66;4407836;32;20070;-73
2021/01/01 00:26:15;;;;;;;133.25;58.45;;;;;;;3.38;72.27;99960.84;4410558;32;20057;-74
2021/01/01 00:28:43;;;;;;;129.98;56.45;;;;;;;3.50;72.65;99958.34;4403711;32;20399;-73
2021/01/01 00:31:21;;;;;;;110.05;49.55;;;;;;;3.59;72.41;99958.66;4407790;32;20124;-77
2021/01/01 00:33:49;;;;;;;103.62;47.03;;;;;;;3.64;72.77;99963.00;4398206;27;20057;-77
2021/01/01 00:36:14;;;;;;;105.55;48.30;;;;;;;3.68;72.20;99955.41;4385422;32;20057;-74
2021/01/01 00:38:46;;;;;;;103.55;46.75;;;;;;;3.62;72.21;99955.06;4385994;32;20390;-78
2021/01/01 00:41:20;;;;;;;106.55;48.60;;;;;;;3.70;72.26;99958.56;4386783;32;20378;-77
2021/01/01 00:43:45;;;;;;;111.95;48.63;;;;;;;3.67;72.16;99962.97;4387050;32;20056;-75
2021/01/01 00:46:11;;;;;;;117.45;52.08;;;;;;;3.62;73.29;99962.63;4384514;32;20431;-74
2021/01/01 00:48:37;;;;;;;114.97;51.13;;;;;;;3.64;73.36;99969.34;4384912;32;20031;-78
2021/01/01 00:51:03;;;;;;;109.32;53.20;;;;;;;3.66;74.08;99977.28;4386695;32;20497;-74
2021/01/01 00:53:29;;;;;;;114.72;51.42;;;;;;;3.62;72.96;99968.97;4387985;32;20035;-74
2021/01/01 00:55:54;;;;;;;104.38;50.35;;;;;;;3.66;73.59;99977.28;4387023;32;20725;-78
2021/01/01 00:58:20;;;;;;;110.18;49.78;;;;;;;3.69;73.59;99966.12;4382867;32;20450;-75
2021/01/01 01:00:46;;;;;;;112.22;50.53;;;;;;;3.72;73.75;99965.28;4384547;32;20093;-77
2021/01/01 01:03:12;;;;;;;106.10;49.28;;;;;;;3.73;73.62;99966.09;4388269;32;20051;-75
2021/01/01 01:05:37;;;;;;;108.60;49.47;;;;;;;3.75;73.83;99966.47;4386471;32;20467;-75
2021/01/01 01:08:03;;;;;;;107.57;50.12;;;;;;;3.62;73.73;99951.50;4385102;32;20423;-78
2021/01/01 01:10:29;;;;;;;117.15;53.05;;;;;;;3.68;73.90;99964.53;4383269;32;20459;-77
2021/01/01 01:12:54;;;;;;;122.70;54.33;;;;;;;3.71;74.47;99971.25;4387057;32;20407;-77
2021/01/01 01:15:21;;;;;;;120.62;55.00;;;;;;;3.81;74.72;99973.94;4386693;32;20509;-74
2021/01/01 01:17:46;;;;;;;107.40;49.92;;;;;;;3.84;74.26;99975.16;4387369;32;20015;-74
2021/01/01 01:20:13;;;;;;;107.87;50.75;;;;;;;3.84;73.83;99975.16;4385193;32;20116;-77
2021/01/01 01:22:39;;;;;;;96.97;48.05;;;;;;;3.94;74.38;99979.81;4385974;32;20035;-76
2021/01/01 01:25:05;;;;;;;105.20;47.72;;;;;;;4.01;74.35;99980.53;4384955;32;20056;-77
2021/01/01 01:27:31;;;;;;;104.18;48.13;;;;;;;4.05;74.25;99977.69;4384962;32;20043;-76
2021/01/01 01:29:56;;;;;;;117.25;52.58;;;;;;;4.07;73.95;99978.87;4384579;32;20071;-74
2021/01/01 01:32:22;;;;;;;123.47;55.30;;;;;;;4.11;74.37;99984.41;4388038;32;20826;-74
2021/01/01 01:34:48;;;;;;;123.57;55.45;;;;;;;4.13;73.89;99982.81;4393367;32;20125;-74
2021/01/01 01:37:13;;;;;;;113.30;52.95;;;;;;;4.24;74.01;99987.47;4400839;32;20111;-74
2021/01/01 01:39:39;;;;;;;123.68;51.45;;;;;;;4.22;73.42;99992.66;4395268;32;20412;-77
2021/01/01 01:42:05;;;;;;;112.10;49.90;;;;;;;4.32;73.83;99986.19;4397788;32;20049;-76
2021/01/01 01:44:31;;;;;;;107.87;50.28;;;;;;;4.33;73.49;99991.34;4400401;32;20112;-74
2021/01/01 01:46:57;;;;;;;104.28;48.25;;;;;;;4.32;73.42;99977.84;4395058;32;20050;-76
2021/01/01 01:49:23;;;;;;;103.55;48.45;;;;;;;4.23;73.69;99986.66;4393650;32;20108;-74
2021/01/01 01:51:52;;;;;;;104.93;47.53;;;;;;;4.19;74.05;99977.56;4391996;32;20430;-76
2021/01/01 01:54:19;;;;;;;102.22;48.58;;;;;;;4.33;74.47;99990.56;4398551;32;20113;-75
2021/01/01 01:56:46;;;;;;;102.62;46.60;;;;;;;4.31;73.74;99990.16;4396156;32;20066;-76
2021/01/01 01:59:17;;;;;;;95.70;48.55;;;;;;;4.33;74.35;99998.91;4379782;32;20126;-76
2021/01/01 02:01:42;;;;;;;101.60;47.92;;;;;;;4.45;74.51;99993.56;4397400;32;20070;-74
2021/01/01 02:04:08;;;;;;;93.68;45.78;;;;;;;4.46;74.49;99999.94;4396647;32;20018;-76
2021/01/01 02:06:34;;;;;;;94.37;45.88;;;;;;;4.51;74.04;100000.28;4397671;32;20022;-77
2021/01/01 02:09:00;;;;;;;106.78;45.88;;;;;;;4.56;73.71;100001.81;4399503;32;20126;-73
2021/01/01 02:11:26;;;;;;;97.05;47.00;;;;;;;4.60;73.94;99997.78;4397848;32;20022;-74
2021/01/01 02:13:54;;;;;;;97.18;48.45;;;;;;;4.51;73.45;100010.66;4400825;32;20091;-77
2021/01/01 02:16:21;;;;;;;91.65;44.95;;;;;;;4.61;74.21;100013.31;4396311;32;20093;-76
2021/01/01 02:18:47;;;;;;;99.57;47.50;;;;;;;4.67;74.05;100008.88;4397795;32;20053;-74
2021/01/01 02:21:15;;;;;;;94.25;44.00;;;;;;;4.62;73.69;100000.94;4392259;32;20042;-77
2021/01/01 02:23:42;;;;;;;88.75;41.20;;;;;;;4.65;74.30;100002.91;4403012;32;20092;-73
2021/01/01 02:26:07;;;;;;;95.65;43.60;;;;;;;4.63;74.28;100001.75;4401512;32;20077;-76
2021/01/01 02:28:33;;;;;;;96.60;43.72;;;;;;;4.71;74.39;100006.00;4396822;32;20046;-78
2021/01/01 02:30:59;;;;;;;97.68;44.40;;;;;;;4.67;74.21;100013.63;4397966;32;20090;-75
2021/01/01 02:33:25;;;;;;;80.55;39.17;;;;;;;4.70;74.52;100008.03;4395749;32;20111;-77
2021/01/01 02:35:51;;;;;;;82.88;39.97;;;;;;;4.64;74.89;100009.69;4399999;32;20062;-75
2021/01/01 02:38:17;;;;;;;88.97;41.35;;;;;;;4.67;75.16;100022.81;4400282;32;20053;-77
2021/01/01 02:40:43;;;;;;;81.30;40.00;;;;;;;4.74;75.40;100010.75;4390971;32;20078;-75
2021/01/01 02:43:08;;;;;;;87.30;39.08;;;;;;;4.79;75.05;100021.47;4385774;32;20428;-76
2021/01/01 02:45:34;;;;;;;78.68;36.55;;;;;;;4.84;74.88;100021.78;4397528;32;20034;-78
2021/01/01 02:48:13;;;;;;;76.55;37.17;;;;;;;4.92;74.83;100022.47;4398139;32;20099;-77
2021/01/01 02:50:39;;;;;;;67.28;32.83;;;;;;;4.94;74.53;100029.22;4391356;32;20039;-77
2021/01/01 02:53:04;;;;;;;66.62;32.25;;;;;;;5.00;75.09;100030.34;4393425;32;20071;-76
2021/01/01 02:55:31;;;;;;;60.70;28.38;;;;;;;5.09;74.77;100027.81;4387506;32;20500;-76
2021/01/01 02:57:59;;;;;;;59.92;26.98;;;;;;;5.14;74.61;100029.34;4389280;32;20093;-74
2021/01/01 03:00:25;;;;;;;50.17;24.33;;;;;;;5.19;75.14;100034.47;4394263;32;20473;-78
2021/01/01 03:02:50;;;;;;;38.75;19.00;;;;;;;5.11;75.13;100028.19;4393597;32;20054;-78
2021/01/01 03:05:16;;;;;;;41.28;19.65;;;;;;;5.13;75.75;100025.78;4394092;32;20093;-78
2021/01/01 03:07:41;;;;;;;28.87;12.32;;;;;;;5.15;75.73;100030.94;4395479;32;20521;-75
2021/01/01 03:10:08;;;;;;;19.05;10.20;;;;;;;5.18;76.50;100025.31;4394210;32;20070;-76
2021/01/01 03:12:33;;;;;;;16.33;7.90;;;;;;;5.23;76.68;100030.44;4397425;32;20039;-74
2021/01/01 03:14:59;;;;;;;12.70;6.43;;;;;;;5.30;76.78;100030.31;4397209;32;20073;-76
2021/01/01 03:17:25;;;;;;;18.15;7.55;;;;;;;5.31;76.98;100026.31;4394006;32;20065;-74
2021/01/01 03:19:50;;;;;;;13.05;6.32;;;;;;;5.41;76.87;100036.56;4392223;32;20439;-77
2021/01/01 03:22:16;;;;;;;12.57;6.50;;;;;;;5.46;77.04;100041.66;4397920;32;20761;-75
2021/01/01 03:24:42;;;;;;;10.32;5.50;;;;;;;5.43;76.92;100031.31;4395931;32;20414;-75
2021/01/01 03:27:07;;;;;;;12.00;5.93;;;;;;;5.59;77.26;100037.06;4397365;32;20387;-74
2021/01/01 03:29:33;;;;;;;6.28;3.83;;;;;;;5.64;76.90;100035.78;4389956;32;20104;-77
2021/01/01 03:31:58;;;;;;;7.97;4.60;;;;;;;5.63;77.07;100032.22;4395718;32;20037;-75
2021/01/01 03:34:24;;;;;;;10.73;4.57;;;;;;;5.75;77.05;100031.66;4394823;32;20058;-74
2021/01/01 03:36:50;;;;;;;9.00;5.05;;;;;;;5.76;76.85;100026.81;4397561;32;20174;-75
2021/01/01 03:39:16;;;;;;;9.15;4.78;;;;;;;5.88;76.82;100026.25;4392591;32;20060;-75
2021/01/01 03:41:42;;;;;;;9.60;4.70;;;;;;;6.01;76.53;100041.19;4394475;32;20026;-76
2021/01/01 03:44:07;;;;;;;10.15;4.30;;;;;;;6.07;75.94;100028.34;4396605;32;20070;-77
2021/01/01 03:46:33;;;;;;;6.70;3.87;;;;;;;6.14;75.76;100029.00;4390294;32;20072;-77
2021/01/01 03:48:59;;;;;;;6.80;3.83;;;;;;;6.14;75.64;100031.78;4395320;32;20080;-75
2021/01/01 03:51:24;;;;;;;8.13;4.00;;;;;;;6.24;75.26;100023.66;4396192;32;20034;-77
2021/01/01 03:53:50;;;;;;;10.00;4.12;;;;;;;6.32;75.21;100027.91;4392386;32;20437;-76
2021/01/01 03:56:15;;;;;;;5.25;3.35;;;;;;;6.27;75.22;100029.19;4394161;32;20042;-74
2021/01/01 03:58:41;;;;;;;8.55;3.65;;;;;;;6.27;75.42;100036.78;4395704;32;20050;-76
2021/01/01 04:01:07;;;;;;;12.07;3.92;;;;;;;6.23;75.49;100036.06;4391073;32;20026;-75
2021/01/01 04:03:33;;;;;;;8.07;3.47;;;;;;;6.34;75.47;100034.63;4391006;32;20114;-76
2021/01/01 04:05:58;;;;;;;6.53;3.03;;;;;;;6.39;75.44;100036.94;4378559;32;20042;-74
2021/01/01 04:08:24;;;;;;;7.07;3.62;;;;;;;6.38;75.51;100040.16;4396971;32;20149;-77
2021/01/01 04:10:50;;;;;;;4.75;3.08;;;;;;;6.37;75.55;100036.56;4399262;32;20069;-75
2021/01/01 04:13:15;;;;;;;7.68;3.60;;;;;;;6.36;75.29;100034.22;4398362;32;20047;-75
2021/01/01 04:15:41;;;;;;;6.05;3.03;;;;;;;6.44;75.52;100038.47;4396203;32;20034;-74
2021/01/01 04:18:07;;;;;;;6.57;3.60;;;;;;;6.37;75.35;100039.38;4392625;32;20118;-75
2021/01/01 04:20:33;;;;;;;7.25;3.30;;;;;;;6.35;75.71;100046.63;4390500;32;20106;-77
2021/01/01 04:22:58;;;;;;;10.65;3.40;;;;;;;6.40;75.92;100043.31;4396546;32;20027;-76
2021/01/01 04:25:24;;;;;;;6.55;2.97;;;;;;;6.35;75.63;100041.03;4395558;32;20062;-74
2021/01/01 04:27:50;;;;;;;6.40;3.28;;;;;;;6.44;75.86;100050.41;4391675;32;20127;-75
2021/01/01 04:30:16;;;;;;;5.25;3.10;;;;;;;6.51;75.60;100041.13;4394358;32;20470;-77
2021/01/01 04:32:41;;;;;;;6.50;3.45;;;;;;;6.51;75.54;100043.91;4397547;32;20711;-76
2021/01/01 04:35:08;;;;;;;7.07;3.28;;;;;;;6.36;75.85;100045.38;4395112;32;20172;-77
2021/01/01 04:37:34;;;;;;;7.43;3.70;;;;;;;6.36;76.52;100051.78;4393196;32;20039;-74
2021/01/01 04:39:59;;;;;;;5.22;3.40;;;;;;;6.39;76.29;100050.91;4390279;32;20090;-77
2021/01/01 04:42:26;;;;;;;8.13;4.05;;;;;;;6.38;76.57;100056.94;4397632;32;20058;-75
2021/01/01 04:44:52;;;;;;;6.78;4.37;;;;;;;6.42;76.41;100054.84;4400861;32;20060;-75
2021/01/01 04:47:22;;;;;;;6.82;3.30;;;;;;;6.43;76.16;100048.03;4392950;32;20034;-75
2021/01/01 04:49:49;;;;;;;7.28;3.30;;;;;;;6.45;76.03;100051.22;4393049;32;20091;-77
2021/01/01 04:52:17;;;;;;;7.95;3.40;;;;;;;6.47;75.66;100048.78;4394117;32;20269;-76
2021/01/01 04:54:45;;;;;;;8.30;3.22;;;;;;;6.54;75.90;100051.44;4389658;32;21111;-76
2021/01/01 04:57:11;;;;;;;4.40;2.70;;;;;;;6.42;76.00;100046.47;4391971;32;20438;-76
2021/01/01 04:59:37;;;;;;;4.32;2.92;;;;;;;6.33;76.56;100052.62;4393033;32;20535;-75
2021/01/01 05:02:03;;;;;;;7.95;3.12;;;;;;;6.35;76.50;100055.75;4395918;32;20023;-76
2021/01/01 05:04:29;;;;;;;4.47;3.10;;;;;;;6.28;76.60;100053.09;4391295;32;20536;-78
2021/01/01 05:06:55;;;;;;;5.93;3.05;;;;;;;6.34;76.61;100045.00;4391871;32;20439;-75
2021/01/01 05:09:22;;;;;;;4.40;2.83;;;;;;;6.32;76.63;100062.19;4395119;32;20087;-77
2021/01/01 05:11:47;;;;;;;4.95;2.80;;;;;;;6.33;76.87;100054.63;4399048;32;20075;-76
2021/01/01 05:14:13;;;;;;;5.35;3.05;;;;;;;6.43;76.88;100070.41;4398602;32;20516;-77
2021/01/01 05:16:38;;;;;;;5.78;3.10;;;;;;;6.41;76.64;100058.88;4395507;32;20114;-76
2021/01/01 05:19:12;;;;;;;7.15;3.37;;;;;;;6.47;76.71;100060.72;4401008;32;20231;-75
2021/01/01 05:21:38;;;;;;;6.20;3.30;;;;;;;6.56;76.85;100060.97;4396271;32;20454;-77
2021/01/01 05:24:06;;;;;;;7.82;2.87;;;;;;;6.52;76.94;100062.25;4394582;32;20039;-76
2021/01/01 05:26:32;;;;;;;5.65;2.90;;;;;;;6.67;76.78;100066.38;4398995;32;20060;-77
2021/01/01 05:31:40;;;;;;;4.15;2.58;;;;;;;6.88;77.22;100082.72;3988462;32;15047494;-73
2021/01/01 05:36:45;;;;;;;6.53;2.87;;;;;;;6.68;78.26;100074.31;3982836;32;15022512;-74
2021/01/01 05:41:51;;;;;;;4.60;2.20;;;;;;;6.96;78.19;100075.78;3992569;32;15022916;-73
2021/01/01 05:44:21;;;;;;;3.85;2.10;;;;;;;6.96;78.19;100075.78;4435480;32;20073;-76
2021/01/01 05:54:48;;;;;;;6.47;2.33;;;;;;;7.03;77.64;100082.00;3989151;32;15022588;-74
2021/01/01 05:57:15;;;;;;;3.40;2.35;;;;;;;6.64;79.09;100079.19;4440594;32;20060;-75
2021/01/01 06:02:19;;;;;;;5.32;2.12;;;;;;;7.00;77.91;100088.47;3978060;31;15708548;-75
2021/01/01 06:04:45;;;;;;;6.65;2.15;;;;;;;7.00;77.91;100088.47;4459825;32;20037;-74
2021/01/01 06:07:11;;;;;;;4.60;2.22;;;;;;;6.48;78.88;100081.09;4458380;32;20080;-74
2021/01/01 06:09:38;;;;;;;5.78;2.53;;;;;;;6.56;79.22;100076.97;4459781;32;20037;-75
2021/01/01 06:14:42;;;;;;;6.00;2.12;;;;;;;6.94;78.22;100097.81;3988098;32;15023166;-75
2021/01/01 06:22:29;;;;;;;5.60;1.75;;;;;;;7.02;77.99;100111.22;3987524;32;15025971;-77
2021/01/01 06:24:57;;;;;;;3.40;1.83;;;;;;;7.02;77.99;100111.22;4442521;32;20033;-74
2021/01/01 06:27:26;;;;;;;4.12;1.73;;;;;;;6.60;78.75;100105.63;4442960;32;20077;-74
2021/01/01 06:29:57;;;;;;;3.10;1.83;;;;;;;6.56;78.88;100114.06;4437986;32;20419;-74
2021/01/01 06:32:23;;;;;;;5.82;1.90;;;;;;;6.57;78.86;100117.69;4441074;32;20049;-74
2021/01/01 06:34:51;;;;;;;2.83;1.90;;;;;;;6.67;78.77;100119.47;4427869;32;20049;-74
2021/01/01 06:37:38;;;;;;;3.10;1.80;;;;;;;6.50;78.96;100121.38;4423328;32;20462;-74
2021/01/01 06:40:07;;;;;;;7.05;2.28;;;;;;;6.45;79.18;100119.09;4424066;32;20065;-75
2021/01/01 06:42:54;;;;;;;5.75;2.05;;;;;;;6.59;78.81;100120.84;4423338;32;20058;-74
2021/01/01 06:50:57;;;;;;;4.97;1.70;;;;;;;6.80;78.22;100131.63;3985878;32;15027099;-75
2021/01/01 06:53:27;;;;;;;3.10;1.98;;;;;;;6.67;78.07;100139.06;4441310;32;20047;-76
2021/01/01 06:56:06;;;;;;;7.40;2.08;;;;;;;6.75;77.72;100143.31;4444022;32;20385;-75
2021/01/01 06:58:31;;;;;;;4.90;1.95;;;;;;;6.81;77.79;100134.00;4435794;32;20076;-75
2021/01/01 07:00:57;;;;;;;6.68;2.30;;;;;;;6.86;77.23;100141.91;4444446;32;20389;-75
2021/01/01 07:13:55;;;;;;;3.45;1.50;;;;;;;7.45;75.10;100158.69;3990554;32;15024183;-74
2021/01/01 07:16:24;;;;;;;5.55;1.70;;;;;;;7.45;75.10;100158.69;4438165;32;20041;-74
2021/01/01 07:18:52;;;;;;;6.03;1.52;;;;;;;7.14;75.82;100152.53;4440336;32;20061;-74
2021/01/01 07:21:18;;;;;;;8.65;1.45;;;;;;;6.99;75.43;100154.03;4437349;32;20087;-76
2021/01/01 07:23:46;;;;;;;6.70;1.65;;;;;;;7.10;75.82;100160.22;4434483;32;20411;-75
2021/01/01 07:26:13;;;;;;;7.12;2.58;;;;;;;7.14;75.84;100162.94;4437314;32;20029;-77
2021/01/01 07:28:40;;;;;;;9.80;1.42;;;;;;;7.10;75.56;100163.03;4431376;32;20068;-75
2021/01/01 07:31:07;;;;;;;5.85;1.75;;;;;;;7.14;75.43;100169.31;4439422;32;20475;-75
2021/01/01 07:33:33;;;;;;;4.50;1.70;;;;;;;7.19;75.09;100168.84;4438978;32;20055;-74
2021/01/01 07:36:00;;;;;;;8.40;1.62;;;;;;;7.14;74.80;100174.12;4425426;32;20069;-76
2021/01/01 07:38:28;;;;;;;9.20;1.92;;;;;;;7.13;75.02;100172.56;4423022;32;20928;-74
2021/01/01 07:40:54;;;;;;;10.27;1.87;;;;;;;7.02;74.98;100172.75;4425180;32;20034;-76
2021/01/01 07:43:21;;;;;;;11.02;2.12;;;;;;;6.99;75.00;100176.41;4425340;32;20172;-77
2021/01/01 07:45:47;;;;;;;7.15;1.50;;;;;;;7.06;74.46;100183.88;4427818;32;20398;-74
2021/01/01 07:48:12;;;;;;;11.45;1.92;;;;;;;7.07;74.63;100180.66;4420074;32;20034;-74
2021/01/01 07:50:39;;;;;;;10.00;1.62;;;;;;;6.95;74.38;100177.69;4420323;32;20093;-74
2021/01/01 07:53:08;;;;;;;8.40;1.50;;;;;;;7.04;74.73;100189.09;4426981;32;20373;-76
2021/01/01 07:55:35;;;;;;;7.07;1.90;;;;;;;6.99;74.73;100182.00;4422165;32;20086;-75
2021/01/01 07:58:16;;;;;;;5.68;1.40;;;;;;;6.96;74.20;100185.66;4422082;32;20061;-76
2021/01/01 08:00:44;;;;;;;7.50;1.52;;;;;;;7.05;73.95;100183.09;4421551;32;20522;-76
2021/01/01 08:03:11;;;;;;;4.75;1.20;;;;;;;7.12;73.91;100190.56;4427760;32;20083;-77
2021/01/01 08:05:37;;;;;;;4.70;1.20;;;;;;;7.05;73.75;100194.28;4425858;32;20426;-75
2021/01/01 08:08:23;;;;;;;7.12;1.62;;;;;;;7.17;73.75;100195.66;4423469;32;20115;-74
2021/01/01 08:10:50;;;;;;;4.75;1.17;;;;;;;7.17;72.96;100192.84;4425403;32;20448;-74
2021/01/01 08:13:20;;;;;;;6.90;1.25;;;;;;;7.19;73.09;100185.63;4424881;32;20057;-74
2021/01/01 08:15:46;;;;;;;11.35;1.50;;;;;;;7.12;73.14;100199.72;4426593;32;20413;-75
2021/01/01 08:18:18;;;;;;;7.22;1.50;;;;;;;7.12;72.69;100198.97;4419313;32;20045;-74
2021/01/01 08:20:46;;;;;;;7.50;1.20;;;;;;;7.15;72.94;100198.09;4421433;32;20427;-74
2021/01/01 08:23:15;;;;;;;9.02;1.42;;;;;;;7.11;72.68;100197.38;4420422;32;20418;-74
2021/01/01 08:25:41;;;;;;;9.32;1.30;;;;;;;6.95;72.73;100197.28;4413833;32;20026;-76
2021/01/01 08:28:08;;;;;;;10.88;1.20;;;;;;;6.97;72.44;100206.81;4412932;32;20042;-73
2021/01/01 08:30:37;;;;;;;6.75;1.65;;;;;;;6.90;72.39;100197.78;4408671;32;20082;-75
2021/01/01 08:33:05;;;;;;;4.18;1.02;;;;;;;7.08;72.47;100203.81;4411928;32;20063;-75
2021/01/01 08:35:31;;;;;;;6.97;1.27;;;;;;;7.05;72.43;100211.06;4414208;32;20081;-77
2021/01/01 08:37:57;;;;;;;6.62;1.23;;;;;;;7.07;72.40;100216.22;4411275;32;20383;-74
2021/01/01 08:40:23;;;;;;;6.78;1.60;;;;;;;7.06;72.18;100214.66;4413688;32;20149;-74
2021/01/01 08:42:54;;;;;;;10.80;1.45;;;;;;;7.00;72.09;100214.34;4404484;32;20069;-74
2021/01/01 08:45:22;;;;;;;4.10;1.10;;;;;;;7.10;72.08;100207.78;4414547;32;20030;-74
2021/01/01 08:47:49;;;;;;;6.18;1.10;;;;;;;7.16;71.96;100216.47;4412226;32;20435;-75
2021/01/01 08:50:18;;;;;;;3.90;1.27;;;;;;;7.17;72.07;100224.44;4414052;32;20022;-77
2021/01/01 08:52:46;;;;;;;8.02;1.20;;;;;;;7.21;71.68;100227.19;4415395;32;20022;-75
2021/01/01 08:55:13;;;;;;;6.87;1.55;;;;;;;7.30;71.19;100230.22;4416117;32;20067;-76
2021/01/01 08:57:38;;;;;;;8.45;1.15;;;;;;;7.39;71.34;100228.41;4410984;32;20069;-74
2021/01/01 09:00:05;;;;;;;6.57;1.10;;;;;;;7.39;70.95;100231.22;4413906;32;20070;-75
2021/01/01 09:02:33;;;;;;;3.80;1.10;;;;;;;7.35;70.83;100222.09;4412802;32;20043;-77
2021/01/01 09:05:00;;;;;;;2.58;1.30;;;;;;;7.38;70.95;100226.03;4413646;32;20094;-76
2021/01/01 09:07:26;;;;;;;3.90;0.90;;;;;;;7.37;70.61;100232.88;4409241;32;20131;-74
2021/01/01 09:09:52;;;;;;;7.78;1.40;;;;;;;7.36;70.80;100231.25;4409940;32;20042;-75
2021/01/01 09:12:20;;;;;;;4.32;1.30;;;;;;;7.38;70.67;100229.63;4412031;32;20418;-76
2021/01/01 09:14:55;;;;;;;9.38;1.17;;;;;;;7.48;70.51;100236.22;4414047;32;20072;-74
2021/01/01 09:17:23;;;;;;;2.65;1.05;;;;;;;7.52;70.03;100237.75;4405404;32;20084;-75
2021/01/01 09:20:06;;;;;;;5.78;0.90;;;;;;;7.57;69.29;100242.06;4408633;32;20112;-76
2021/01/01 09:22:34;;;;;;;5.87;0.90;;;;;;;7.66;69.62;100243.06;4403055;32;20506;-74
2021/01/01 09:25:22;;;;;;;7.55;0.90;;;;;;;7.67;69.52;100252.28;4404223;32;20098;-74
2021/01/01 09:27:49;;;;;;;6.25;1.02;;;;;;;7.68;68.42;100246.25;4405865;32;20430;-77
2021/01/01 09:30:17;;;;;;;6.68;1.35;;;;;;;7.71;69.04;100248.16;4406240;32;20126;-76
2021/01/01 09:32:45;;;;;;;3.72;1.02;;;;;;;7.66;69.47;100240.28;4410142;32;20441;-75
2021/01/01 09:35:13;;;;;;;3.70;1.25;;;;;;;7.74;69.45;100252.88;4409292;32;20030;-75
2021/01/01 09:37:57;;;;;;;10.55;1.50;;;;;;;7.82;69.36;100257.13;4409569;32;20034;-75
2021/01/01 09:40:24;;;;;;;4.68;0.95;;;;;;;7.87;68.82;100253.03;4407612;32;20684;-75
2021/01/01 09:42:51;;;;;;;6.10;1.05;;;;;;;7.87;68.75;100253.03;4412247;32;20015;-74
2021/01/01 09:45:17;;;;;;;5.78;1.02;;;;;;;7.92;68.73;100258.16;4411308;32;20048;-76
2021/01/01 09:47:43;;;;;;;2.05;0.75;;;;;;;7.96;68.47;100259.66;4407474;32;20038;-74
2021/01/01 09:50:09;;;;;;;6.12;1.05;;;;;;;8.02;67.84;100254.31;4402822;32;20128;-74
2021/01/01 09:52:36;;;;;;;10.75;1.50;;;;;;;8.13;67.52;100254.88;4410523;32;20038;-76
2021/01/01 09:55:03;;;;;;;2.45;1.00;;;;;;;8.20;67.37;100257.53;4408858;32;20074;-74
2021/01/01 09:57:28;;;;;;;5.22;0.88;;;;;;;8.22;66.82;100262.72;4413577;32;20044;-75
2021/01/01 09:59:55;;;;;;;4.50;1.20;;;;;;;8.27;66.88;100265.81;4405002;32;20109;-74
2021/01/01 10:02:21;;;;;;;3.70;0.62;;;;;;;8.27;67.18;100262.22;4408722;32;20038;-73
2021/01/01 10:04:46;;;;;;;3.60;1.25;;;;;;;8.23;67.10;100273.53;4412558;32;20447;-77
2021/01/01 10:07:12;;;;;;;6.70;0.80;;;;;;;8.14;67.02;100268.44;4405915;32;20520;-76
2021/01/01 10:09:37;;;;;;;2.40;0.95;;;;;;;8.25;67.58;100275.88;4409315;32;20359;-75
2021/01/01 10:12:05;;;;;;;5.25;1.05;;;;;;;8.30;67.35;100262.12;4410697;32;20050;-73
2021/01/01 10:14:32;;;;;;;3.10;0.95;;;;;;;8.29;67.07;100270.97;4414242;32;20121;-77
2021/01/01 10:16:58;;;;;;;1.80;0.70;;;;;;;8.39;67.04;100265.13;4407660;32;20089;-76
2021/01/01 10:19:24;;;;;;;1.20;0.60;;;;;;;8.35;67.42;100277.66;4408054;32;20663;-75
2021/01/01 10:21:50;;;;;;;3.15;0.90;;;;;;;8.33;68.03;100275.28;4410012;32;20037;-76
2021/01/01 10:24:15;;;;;;;2.37;0.90;;;;;;;8.15;68.25;100264.44;4411582;32;20504;-76
2021/01/01 10:26:47;;;;;;;3.45;1.00;;;;;;;8.13;69.04;100269.69;4413891;32;20420;-74
2021/01/01 10:29:13;;;;;;;2.53;1.00;;;;;;;8.19;69.05;100272.75;4406233;32;20431;-73
2021/01/01 10:31:39;;;;;;;7.80;1.40;;;;;;;7.97;69.19;100271.63;4413920;32;20103;-76
2021/01/01 10:34:04;;;;;;;3.37;0.80;;;;;;;8.01;69.17;100273.12;4411379;32;20030;-74
2021/01/01 10:36:30;;;;;;;2.80;0.77;;;;;;;8.01;69.99;100275.16;4412912;32;20033;-74
2021/01/01 10:38:56;;;;;;;4.70;0.85;;;;;;;7.88;69.88;100272.22;4411901;32;20089;-76
2021/01/01 10:41:21;;;;;;;4.30;0.80;;;;;;;8.06;69.39;100274.66;4411907;32;20083;-75
2021/01/01 10:43:47;;;;;;;4.03;0.90;;;;;;;8.13;69.82;100280.09;4415868;32;20081;-76
2021/01/01 10:46:14;;;;;;;2.95;1.10;;;;;;;7.84;69.33;100284.72;4411325;32;20046;-74
2021/01/01 10:48:40;;;;;;;1.37;0.80;;;;;;;8.11;69.79;100285.34;4409171;32;20061;-74
2021/01/01 10:51:06;;;;;;;2.42;0.90;;;;;;;8.16;68.84;100284.84;4411236;32;20027;-75
2021/01/01 10:53:31;;;;;;;3.47;0.93;;;;;;;7.98;69.40;100278.84;4411725;32;20120;-75
2021/01/01 10:55:57;;;;;;;8.73;1.10;;;;;;;8.20;69.28;100282.75;4413574;32;20095;-74
2021/01/01 10:58:25;;;;;;;3.78;1.02;;;;;;;8.27;69.37;100293.03;4407973;32;20065;-74
2021/01/01 11:00:52;;;;;;;4.37;1.10;;;;;;;8.17;69.72;100292.81;4403994;32;20026;-75
2021/01/01 11:03:18;;;;;;;5.15;1.20;;;;;;;7.97;69.87;100271.63;4407785;32;20053;-74
2021/01/01 11:05:43;;;;;;;7.20;1.02;;;;;;;8.22;70.21;100287.94;4405191;32;20034;-75
2021/01/01 11:08:10;;;;;;;3.12;0.70;;;;;;;8.30;70.81;100287.38;4408063;32;20076;-74
2021/01/01 11:10:35;;;;;;;3.08;0.90;;;;;;;8.25;70.22;100298.31;4407822;32;20053;-76
2021/01/01 11:13:03;;;;;;;4.12;1.00;;;;;;;8.02;70.70;100285.94;4403260;32;20030;-75
2021/01/01 12:22:21;;;;;;;3.97;1.20;;;;;;;8.24;76.65;100286.31;3990007;32;15024546;-74
2021/01/01 12:24:47;;;;;;;6.32;1.48;;;;;;;8.24;76.65;100286.31;4439890;32;20145;-74
2021/01/01 12:27:16;;;;;;;9.50;2.25;;;;;;;7.78;76.66;100280.84;4439899;32;20489;-73
2021/01/01 12:29:42;;;;;;;5.22;1.50;;;;;;;7.81;76.74;100289.19;4434894;32;20430;-75
2021/01/01 12:32:08;;;;;;;4.45;1.50;;;;;;;7.81;76.84;100285.56;4442378;32;20052;-74
2021/01/01 12:34:34;;;;;;;6.93;1.90;;;;;;;7.72;76.38;100288.16;4424727;32;20132;-74
2021/01/01 12:37:00;;;;;;;4.53;1.45;;;;;;;7.66;75.93;100279.47;4422237;32;20073;-74
2021/01/01 12:39:26;;;;;;;8.20;2.25;;;;;;;7.78;76.37;100280.84;4423467;32;20038;-75
2021/01/01 12:41:51;;;;;;;3.17;0.90;;;;;;;7.78;76.37;100290.03;4420584;32;20041;-74
2021/01/01 12:44:17;;;;;;;3.90;1.40;;;;;;;7.73;76.07;100279.31;4422415;32;20030;-75
2021/01/01 12:46:43;;;;;;;6.00;2.20;;;;;;;7.81;76.48;100279.97;4423584;32;20519;-75
2021/01/01 12:49:09;;;;;;;7.25;1.30;;;;;;;7.96;76.50;100284.06;4422845;32;20407;-75
2021/01/01 12:51:34;;;;;;;9.23;1.40;;;;;;;8.02;75.22;100279.53;4425184;32;20045;-74
2021/01/01 12:54:00;;;;;;;9.55;1.42;;;;;;;7.94;74.61;100281.69;4425397;32;20073;-75
2021/01/01 12:56:25;;;;;;;3.30;1.58;;;;;;;8.14;75.54;100278.88;4424515;32;20030;-76
2021/01/01 12:58:51;;;;;;;7.90;1.50;;;;;;;8.17;75.23;100292.03;4424103;32;20118;-75
2021/01/01 13:01:17;;;;;;;12.00;1.80;;;;;;;8.09;75.13;100280.19;4422227;32;20096;-75
2021/01/01 13:03:42;;;;;;;6.47;1.60;;;;;;;7.97;74.33;100291.25;4426631;32;20112;-75
2021/01/01 13:06:08;;;;;;;5.37;1.60;;;;;;;7.89;74.73;100284.22;4425264;32;20064;-75
2021/01/01 13:08:33;;;;;;;10.85;1.90;;;;;;;7.94;75.06;100284.50;4420992;32;20473;-76
2021/01/01 13:10:59;;;;;;;8.82;2.00;;;;;;;8.04;75.20;100283.47;4419771;32;20092;-75
2021/01/01 13:13:25;;;;;;;8.05;2.30;;;;;;;8.12;74.83;100289.72;4425582;32;20030;-75
2021/01/01 13:15:51;;;;;;;8.13;2.53;;;;;;;8.09;74.53;100296.19;4423876;32;20117;-76